sensor_id;sensor_type;location;lat;lon;timestamp;P1;durP1;ratioP1;P2;durP2;ratioP2
31464;SDS011;18089;47.428;15.006;2022-12-26T00:00:57;44.40;;;30.63;;
31464;SDS011;18089;47.428;15.006;2022-12-26T00:03:30;51.80;;;33.27;;
31464;SDS011;18089;47.428;15.006;2022-12-26T00:06:02;60.90;;;36.00;;
31464;SDS011;18089;47.428;15.006;2022-12-26T00:08:34;58.73;;;34.50;;
31464;SDS011;18089;47.428;15.006;2022-12-26T00:11:06;50.03;;;32.53;;
31464;SDS011;18089;47.428;15.006;2022-12-26T00:13:38;45.20;;;31.47;;
31464;SDS011;18089;47.428;15.006;2022-12-26T00:16:13;46.43;;;31.57;;
31464;SDS011;18089;47.428;15.006;2022-12-26T00:18:46;46.30;;;31.20;;
31464;SDS011;18089;47.428;15.006;2022-12-26T00:21:18;44.23;;;29.87;;
31464;SDS011;18089;47.428;15.006;2022-12-26T00:23:51;41.13;;;28.77;;
31464;SDS011;18089;47.428;15.006;2022-12-26T00:26:24;38.07;;;26.67;;
31464;SDS011;18089;47.428;15.006;2022-12-26T00:28:57;35.80;;;25.80;;
31464;SDS011;18089;47.428;15.006;2022-12-26T00:31:32;40.80;;;27.03;;
31464;SDS011;18089;47.428;15.006;2022-12-26T00:34:04;37.37;;;25.77;;
31464;SDS011;18089;47.428;15.006;2022-12-26T00:36:36;37.77;;;26.13;;
31464;SDS011;18089;47.428;15.006;2022-12-26T00:39:08;38.63;;;25.87;;
31464;SDS011;18089;47.428;15.006;2022-12-26T00:41:40;37.23;;;25.93;;
31464;SDS011;18089;47.428;15.006;2022-12-26T00:44:12;40.10;;;25.63;;
31464;SDS011;18089;47.428;15.006;2022-12-26T00:46:46;38.37;;;26.30;;
31464;SDS011;18089;47.428;15.006;2022-12-26T00:49:18;38.07;;;25.67;;
31464;SDS011;18089;47.428;15.006;2022-12-26T00:51:50;36.23;;;26.13;;
31464;SDS011;18089;47.428;15.006;2022-12-26T00:54:22;39.67;;;25.87;;
31464;SDS011;18089;47.428;15.006;2022-12-26T00:56:54;35.27;;;25.37;;
31464;SDS011;18089;47.428;15.006;2022-12-26T00:59:26;33.63;;;26.27;;
31464;SDS011;18089;47.428;15.006;2022-12-26T01:01:59;40.53;;;26.10;;
31464;SDS011;18089;47.428;15.006;2022-12-26T01:04:51;34.87;;;25.50;;
31464;SDS011;18089;47.428;15.006;2022-12-26T01:07:23;34.03;;;25.00;;
31464;SDS011;18089;47.428;15.006;2022-12-26T01:09:55;35.40;;;25.33;;
31464;SDS011;18089;47.428;15.006;2022-12-26T01:12:27;36.80;;;25.93;;
31464;SDS011;18089;47.428;15.006;2022-12-26T01:14:59;36.33;;;25.87;;
31464;SDS011;18089;47.428;15.006;2022-12-26T01:17:33;33.30;;;24.83;;
31464;SDS011;18089;47.428;15.006;2022-12-26T01:20:05;35.13;;;24.77;;
31464;SDS011;18089;47.428;15.006;2022-12-26T01:22:38;40.67;;;26.00;;
31464;SDS011;18089;47.428;15.006;2022-12-26T01:25:10;33.77;;;25.43;;
31464;SDS011;18089;47.428;15.006;2022-12-26T01:27:42;40.10;;;25.30;;
31464;SDS011;18089;47.428;15.006;2022-12-26T01:30:14;36.07;;;25.77;;
31464;SDS011;18089;47.428;15.006;2022-12-26T01:32:48;36.50;;;25.73;;
31464;SDS011;18089;47.428;15.006;2022-12-26T01:35:20;36.87;;;25.93;;
31464;SDS011;18089;47.428;15.006;2022-12-26T01:37:52;56.60;;;32.83;;
31464;SDS011;18089;47.428;15.006;2022-12-26T01:40:25;44.20;;;29.80;;
31464;SDS011;18089;47.428;15.006;2022-12-26T01:42:57;35.83;;;25.67;;
31464;SDS011;18089;47.428;15.006;2022-12-26T01:45:29;41.97;;;26.03;;
31464;SDS011;18089;47.428;15.006;2022-12-26T01:48:03;36.40;;;24.77;;
31464;SDS011;18089;47.428;15.006;2022-12-26T01:50:43;35.67;;;24.30;;
31464;SDS011;18089;47.428;15.006;2022-12-26T01:53:17;33.50;;;23.40;;
31464;SDS011;18089;47.428;15.006;2022-12-26T01:55:53;39.73;;;25.50;;
31464;SDS011;18089;47.428;15.006;2022-12-26T01:58:29;36.27;;;24.70;;
31464;SDS011;18089;47.428;15.006;2022-12-26T02:01:04;34.90;;;25.20;;
31464;SDS011;18089;47.428;15.006;2022-12-26T02:03:40;37.10;;;26.63;;
31464;SDS011;18089;47.428;15.006;2022-12-26T02:06:30;36.87;;;23.73;;
31464;SDS011;18089;47.428;15.006;2022-12-26T02:09:03;37.17;;;25.30;;
31464;SDS011;18089;47.428;15.006;2022-12-26T02:11:36;34.70;;;24.57;;
31464;SDS011;18089;47.428;15.006;2022-12-26T02:14:09;32.13;;;24.03;;
31464;SDS011;18089;47.428;15.006;2022-12-26T02:16:41;36.33;;;26.17;;
31464;SDS011;18089;47.428;15.006;2022-12-26T02:19:17;29.87;;;23.87;;
31464;SDS011;18089;47.428;15.006;2022-12-26T02:22:06;32.67;;;24.63;;
31464;SDS011;18089;47.428;15.006;2022-12-26T02:24:51;35.00;;;25.00;;
31464;SDS011;18089;47.428;15.006;2022-12-26T02:27:45;36.40;;;24.43;;
31464;SDS011;18089;47.428;15.006;2022-12-26T02:30:32;32.47;;;23.33;;
31464;SDS011;18089;47.428;15.006;2022-12-26T02:33:17;32.33;;;23.40;;
31464;SDS011;18089;47.428;15.006;2022-12-26T02:36:10;31.10;;;22.40;;
31464;SDS011;18089;47.428;15.006;2022-12-26T02:38:56;34.20;;;24.53;;
31464;SDS011;18089;47.428;15.006;2022-12-26T02:41:37;33.37;;;23.73;;
31464;SDS011;18089;47.428;15.006;2022-12-26T02:44:16;30.87;;;23.80;;
31464;SDS011;18089;47.428;15.006;2022-12-26T02:47:12;36.10;;;24.03;;
31464;SDS011;18089;47.428;15.006;2022-12-26T02:49:55;24.87;;;21.03;;
31464;SDS011;18089;47.428;15.006;2022-12-26T02:52:54;26.37;;;21.00;;
31464;SDS011;18089;47.428;15.006;2022-12-26T02:55:49;29.47;;;21.73;;
31464;SDS011;18089;47.428;15.006;2022-12-26T02:58:41;29.67;;;22.40;;
31464;SDS011;18089;47.428;15.006;2022-12-26T03:01:42;27.40;;;22.23;;
31464;SDS011;18089;47.428;15.006;2022-12-26T03:04:35;30.20;;;22.70;;
31464;SDS011;18089;47.428;15.006;2022-12-26T03:07:27;34.73;;;23.10;;
31464;SDS011;18089;47.428;15.006;2022-12-26T03:10:19;30.70;;;21.57;;
31464;SDS011;18089;47.428;15.006;2022-12-26T03:13:11;28.77;;;21.70;;
31464;SDS011;18089;47.428;15.006;2022-12-26T03:15:46;29.60;;;21.70;;
31464;SDS011;18089;47.428;15.006;2022-12-26T03:18:40;26.37;;;21.13;;
31464;SDS011;18089;47.428;15.006;2022-12-26T03:21:15;25.83;;;19.87;;
31464;SDS011;18089;47.428;15.006;2022-12-26T03:23:50;25.23;;;20.47;;
31464;SDS011;18089;47.428;15.006;2022-12-26T03:26:25;25.73;;;20.77;;
31464;SDS011;18089;47.428;15.006;2022-12-26T03:29:10;24.67;;;20.17;;
31464;SDS011;18089;47.428;15.006;2022-12-26T03:32:02;23.80;;;19.90;;
31464;SDS011;18089;47.428;15.006;2022-12-26T03:34:38;22.77;;;18.90;;
31464;SDS011;18089;47.428;15.006;2022-12-26T03:37:25;26.37;;;18.97;;
31464;SDS011;18089;47.428;15.006;2022-12-26T03:40:07;23.83;;;19.70;;
31464;SDS011;18089;47.428;15.006;2022-12-26T03:43:04;24.40;;;19.03;;
31464;SDS011;18089;47.428;15.006;2022-12-26T03:45:59;23.77;;;19.17;;
31464;SDS011;18089;47.428;15.006;2022-12-26T03:48:56;27.47;;;20.70;;
31464;SDS011;18089;47.428;15.006;2022-12-26T03:51:49;21.17;;;18.60;;
31464;SDS011;18089;47.428;15.006;2022-12-26T03:54:47;21.13;;;18.67;;
31464;SDS011;18089;47.428;15.006;2022-12-26T03:57:43;23.03;;;18.10;;
31464;SDS011;18089;47.428;15.006;2022-12-26T04:00:37;20.73;;;18.47;;
31464;SDS011;18089;47.428;15.006;2022-12-26T04:03:29;24.03;;;19.10;;
31464;SDS011;18089;47.428;15.006;2022-12-26T04:06:21;23.63;;;19.80;;
31464;SDS011;18089;47.428;15.006;2022-12-26T04:09:14;22.37;;;19.03;;
31464;SDS011;18089;47.428;15.006;2022-12-26T04:12:10;21.30;;;19.03;;
31464;SDS011;18089;47.428;15.006;2022-12-26T04:15:04;22.40;;;18.07;;
31464;SDS011;18089;47.428;15.006;2022-12-26T04:18:02;22.17;;;17.73;;
31464;SDS011;18089;47.428;15.006;2022-12-26T04:21:05;21.57;;;18.50;;
31464;SDS011;18089;47.428;15.006;2022-12-26T04:24:04;21.00;;;18.80;;
31464;SDS011;18089;47.428;15.006;2022-12-26T04:26:57;20.70;;;18.53;;
31464;SDS011;18089;47.428;15.006;2022-12-26T04:29:51;20.37;;;18.37;;
31464;SDS011;18089;47.428;15.006;2022-12-26T04:32:42;20.87;;;17.77;;
31464;SDS011;18089;47.428;15.006;2022-12-26T04:35:33;19.57;;;17.67;;
31464;SDS011;18089;47.428;15.006;2022-12-26T04:38:28;19.20;;;17.30;;
31464;SDS011;18089;47.428;15.006;2022-12-26T04:41:19;18.37;;;16.40;;
31464;SDS011;18089;47.428;15.006;2022-12-26T04:44:09;18.63;;;16.87;;
31464;SDS011;18089;47.428;15.006;2022-12-26T04:46:44;19.60;;;17.53;;
31464;SDS011;18089;47.428;15.006;2022-12-26T04:49:17;19.53;;;17.50;;
31464;SDS011;18089;47.428;15.006;2022-12-26T04:52:08;19.10;;;17.20;;
31464;SDS011;18089;47.428;15.006;2022-12-26T04:54:41;18.50;;;16.67;;
31464;SDS011;18089;47.428;15.006;2022-12-26T04:57:13;19.07;;;17.17;;
31464;SDS011;18089;47.428;15.006;2022-12-26T04:59:45;19.47;;;17.57;;
31464;SDS011;18089;47.428;15.006;2022-12-26T05:02:19;19.10;;;16.80;;
31464;SDS011;18089;47.428;15.006;2022-12-26T05:05:14;18.33;;;16.60;;
31464;SDS011;18089;47.428;15.006;2022-12-26T05:08:03;20.70;;;18.60;;
31464;SDS011;18089;47.428;15.006;2022-12-26T05:10:53;18.93;;;17.03;;
31464;SDS011;18089;47.428;15.006;2022-12-26T05:13:25;19.43;;;17.50;;
31464;SDS011;18089;47.428;15.006;2022-12-26T05:15:57;19.43;;;17.47;;
31464;SDS011;18089;47.428;15.006;2022-12-26T05:18:48;20.73;;;18.53;;
31464;SDS011;18089;47.428;15.006;2022-12-26T05:21:37;19.90;;;17.90;;
31464;SDS011;18089;47.428;15.006;2022-12-26T05:24:27;19.50;;;17.50;;
31464;SDS011;18089;47.428;15.006;2022-12-26T05:27:20;20.43;;;18.47;;
31464;SDS011;18089;47.428;15.006;2022-12-26T05:30:10;19.83;;;17.73;;
31464;SDS011;18089;47.428;15.006;2022-12-26T05:32:42;20.33;;;18.20;;
31464;SDS011;18089;47.428;15.006;2022-12-26T05:35:33;20.10;;;17.83;;
31464;SDS011;18089;47.428;15.006;2022-12-26T05:38:05;19.70;;;17.37;;
31464;SDS011;18089;47.428;15.006;2022-12-26T05:40:40;19.43;;;17.43;;
31464;SDS011;18089;47.428;15.006;2022-12-26T05:43:12;18.93;;;16.90;;
31464;SDS011;18089;47.428;15.006;2022-12-26T05:45:44;19.47;;;17.67;;
31464;SDS011;18089;47.428;15.006;2022-12-26T05:48:16;20.03;;;18.20;;
31464;SDS011;18089;47.428;15.006;2022-12-26T05:50:49;19.37;;;17.67;;
31464;SDS011;18089;47.428;15.006;2022-12-26T05:53:21;21.13;;;18.23;;
31464;SDS011;18089;47.428;15.006;2022-12-26T05:55:53;20.77;;;18.80;;
31464;SDS011;18089;47.428;15.006;2022-12-26T05:58:25;21.40;;;19.13;;
31464;SDS011;18089;47.428;15.006;2022-12-26T06:01:07;22.83;;;19.37;;
31464;SDS011;18089;47.428;15.006;2022-12-26T06:03:40;19.40;;;17.50;;
31464;SDS011;18089;47.428;15.006;2022-12-26T06:06:15;19.93;;;18.03;;
31464;SDS011;18089;47.428;15.006;2022-12-26T06:08:47;17.97;;;16.37;;
31464;SDS011;18089;47.428;15.006;2022-12-26T06:11:20;17.93;;;16.23;;
31464;SDS011;18089;47.428;15.006;2022-12-26T06:13:54;17.47;;;16.03;;
31464;SDS011;18089;47.428;15.006;2022-12-26T06:16:26;18.00;;;16.17;;
31464;SDS011;18089;47.428;15.006;2022-12-26T06:18:58;17.17;;;15.67;;
31464;SDS011;18089;47.428;15.006;2022-12-26T06:21:31;17.63;;;16.13;;
31464;SDS011;18089;47.428;15.006;2022-12-26T06:24:04;18.80;;;16.90;;
31464;SDS011;18089;47.428;15.006;2022-12-26T06:26:36;18.20;;;16.40;;
31464;SDS011;18089;47.428;15.006;2022-12-26T06:29:08;19.47;;;17.60;;
31464;SDS011;18089;47.428;15.006;2022-12-26T06:31:40;19.40;;;17.53;;
31464;SDS011;18089;47.428;15.006;2022-12-26T06:34:12;18.07;;;16.47;;
31464;SDS011;18089;47.428;15.006;2022-12-26T06:36:45;19.87;;;17.83;;
31464;SDS011;18089;47.428;15.006;2022-12-26T06:39:18;18.33;;;16.53;;
31464;SDS011;18089;47.428;15.006;2022-12-26T06:41:50;26.93;;;24.07;;
31464;SDS011;18089;47.428;15.006;2022-12-26T06:44:22;27.00;;;22.67;;
31464;SDS011;18089;47.428;15.006;2022-12-26T06:46:54;29.33;;;23.40;;
31464;SDS011;18089;47.428;15.006;2022-12-26T06:49:26;26.33;;;23.50;;
31464;SDS011;18089;47.428;15.006;2022-12-26T06:52:00;30.30;;;22.87;;
31464;SDS011;18089;47.428;15.006;2022-12-26T06:54:32;27.83;;;22.67;;
31464;SDS011;18089;47.428;15.006;2022-12-26T06:57:04;25.53;;;20.97;;
31464;SDS011;18089;47.428;15.006;2022-12-26T06:59:36;23.23;;;20.63;;
31464;SDS011;18089;47.428;15.006;2022-12-26T07:02:08;23.70;;;20.13;;
31464;SDS011;18089;47.428;15.006;2022-12-26T07:04:41;24.30;;;21.53;;
31464;SDS011;18089;47.428;15.006;2022-12-26T07:07:14;27.60;;;22.43;;
31464;SDS011;18089;47.428;15.006;2022-12-26T07:09:46;27.17;;;22.20;;
31464;SDS011;18089;47.428;15.006;2022-12-26T07:12:18;26.10;;;22.37;;
31464;SDS011;18089;47.428;15.006;2022-12-26T07:14:52;31.40;;;24.47;;
31464;SDS011;18089;47.428;15.006;2022-12-26T07:17:24;89.03;;;45.83;;
31464;SDS011;18089;47.428;15.006;2022-12-26T07:19:56;61.27;;;34.57;;
31464;SDS011;18089;47.428;15.006;2022-12-26T07:22:29;32.33;;;21.53;;
31464;SDS011;18089;47.428;15.006;2022-12-26T07:25:01;21.43;;;18.03;;
31464;SDS011;18089;47.428;15.006;2022-12-26T07:27:33;23.23;;;20.13;;
31464;SDS011;18089;47.428;15.006;2022-12-26T07:30:06;25.53;;;19.97;;
31464;SDS011;18089;47.428;15.006;2022-12-26T07:32:39;25.47;;;21.47;;
31464;SDS011;18089;47.428;15.006;2022-12-26T07:35:11;25.63;;;20.53;;
31464;SDS011;18089;47.428;15.006;2022-12-26T07:37:44;22.73;;;19.83;;
31464;SDS011;18089;47.428;15.006;2022-12-26T07:40:16;24.90;;;20.23;;
31464;SDS011;18089;47.428;15.006;2022-12-26T07:42:51;29.97;;;22.67;;
31464;SDS011;18089;47.428;15.006;2022-12-26T07:45:23;29.03;;;22.73;;
31464;SDS011;18089;47.428;15.006;2022-12-26T07:47:55;25.10;;;21.17;;
31464;SDS011;18089;47.428;15.006;2022-12-26T07:50:28;29.73;;;22.20;;
31464;SDS011;18089;47.428;15.006;2022-12-26T07:53:01;32.03;;;24.43;;
31464;SDS011;18089;47.428;15.006;2022-12-26T07:55:33;28.70;;;23.07;;
31464;SDS011;18089;47.428;15.006;2022-12-26T07:58:05;31.57;;;22.57;;
31464;SDS011;18089;47.428;15.006;2022-12-26T08:00:37;33.13;;;23.20;;
31464;SDS011;18089;47.428;15.006;2022-12-26T08:03:09;31.53;;;23.13;;
31464;SDS011;18089;47.428;15.006;2022-12-26T08:05:43;29.30;;;22.67;;
31464;SDS011;18089;47.428;15.006;2022-12-26T08:08:16;29.23;;;24.07;;
31464;SDS011;18089;47.428;15.006;2022-12-26T08:10:48;32.00;;;22.53;;
31464;SDS011;18089;47.428;15.006;2022-12-26T08:13:29;34.83;;;23.93;;
31464;SDS011;18089;47.428;15.006;2022-12-26T08:16:03;32.40;;;25.60;;
31464;SDS011;18089;47.428;15.006;2022-12-26T08:18:36;36.43;;;27.33;;
31464;SDS011;18089;47.428;15.006;2022-12-26T08:21:09;35.53;;;26.90;;
31464;SDS011;18089;47.428;15.006;2022-12-26T08:23:43;43.70;;;29.87;;
31464;SDS011;18089;47.428;15.006;2022-12-26T08:26:17;43.87;;;31.50;;
31464;SDS011;18089;47.428;15.006;2022-12-26T08:28:53;53.20;;;33.80;;
31464;SDS011;18089;47.428;15.006;2022-12-26T08:31:26;48.07;;;32.33;;
31464;SDS011;18089;47.428;15.006;2022-12-26T08:33:58;60.10;;;38.37;;
31464;SDS011;18089;47.428;15.006;2022-12-26T08:36:30;86.17;;;48.93;;
31464;SDS011;18089;47.428;15.006;2022-12-26T08:39:04;75.87;;;44.50;;
31464;SDS011;18089;47.428;15.006;2022-12-26T08:41:36;75.93;;;44.10;;
31464;SDS011;18089;47.428;15.006;2022-12-26T08:44:08;78.33;;;45.27;;
31464;SDS011;18089;47.428;15.006;2022-12-26T08:46:42;64.17;;;39.70;;
31464;SDS011;18089;47.428;15.006;2022-12-26T08:49:14;60.90;;;38.30;;
31464;SDS011;18089;47.428;15.006;2022-12-26T08:51:46;58.77;;;37.17;;
31464;SDS011;18089;47.428;15.006;2022-12-26T08:54:19;55.97;;;35.73;;
31464;SDS011;18089;47.428;15.006;2022-12-26T08:56:51;51.70;;;33.70;;
31464;SDS011;18089;47.428;15.006;2022-12-26T08:59:23;48.77;;;35.70;;
31464;SDS011;18089;47.428;15.006;2022-12-26T09:01:55;64.40;;;41.30;;
31464;SDS011;18089;47.428;15.006;2022-12-26T09:04:27;63.27;;;41.53;;
31464;SDS011;18089;47.428;15.006;2022-12-26T09:06:59;58.97;;;39.13;;
31464;SDS011;18089;47.428;15.006;2022-12-26T09:09:33;48.97;;;34.50;;
31464;SDS011;18089;47.428;15.006;2022-12-26T09:12:05;59.73;;;37.60;;
31464;SDS011;18089;47.428;15.006;2022-12-26T09:14:37;55.10;;;35.30;;
31464;SDS011;18089;47.428;15.006;2022-12-26T09:17:09;48.27;;;31.93;;
31464;SDS011;18089;47.428;15.006;2022-12-26T09:19:42;49.50;;;32.53;;
31464;SDS011;18089;47.428;15.006;2022-12-26T09:22:14;46.67;;;31.53;;
31464;SDS011;18089;47.428;15.006;2022-12-26T09:25:05;45.43;;;31.10;;
31464;SDS011;18089;47.428;15.006;2022-12-26T09:27:37;46.60;;;30.67;;
31464;SDS011;18089;47.428;15.006;2022-12-26T09:30:09;48.43;;;32.37;;
31464;SDS011;18089;47.428;15.006;2022-12-26T09:32:41;48.97;;;31.83;;
31464;SDS011;18089;47.428;15.006;2022-12-26T09:35:14;53.10;;;33.83;;
31464;SDS011;18089;47.428;15.006;2022-12-26T09:37:46;56.80;;;36.60;;
31464;SDS011;18089;47.428;15.006;2022-12-26T09:40:21;42.17;;;30.63;;
31464;SDS011;18089;47.428;15.006;2022-12-26T09:42:59;44.63;;;31.60;;
31464;SDS011;18089;47.428;15.006;2022-12-26T09:45:40;40.20;;;29.07;;
31464;SDS011;18089;47.428;15.006;2022-12-26T09:48:29;32.13;;;24.90;;
31464;SDS011;18089;47.428;15.006;2022-12-26T09:51:03;39.20;;;30.60;;
31464;SDS011;18089;47.428;15.006;2022-12-26T09:53:36;30.90;;;25.83;;
31464;SDS011;18089;47.428;15.006;2022-12-26T09:56:14;32.30;;;26.13;;
31464;SDS011;18089;47.428;15.006;2022-12-26T09:58:49;33.40;;;26.30;;
31464;SDS011;18089;47.428;15.006;2022-12-26T10:01:23;37.87;;;28.20;;
31464;SDS011;18089;47.428;15.006;2022-12-26T10:03:58;32.27;;;23.93;;
31464;SDS011;18089;47.428;15.006;2022-12-26T10:06:33;23.73;;;20.60;;
31464;SDS011;18089;47.428;15.006;2022-12-26T10:09:26;22.15;;;19.40;;
31464;SDS011;18089;47.428;15.006;2022-12-26T10:12:14;27.98;;;22.63;;
31464;SDS011;18089;47.428;15.006;2022-12-26T10:14:58;31.70;;;23.85;;
31464;SDS011;18089;47.428;15.006;2022-12-26T10:17:35;31.55;;;23.40;;
31464;SDS011;18089;47.428;15.006;2022-12-26T10:20:15;22.65;;;19.52;;
31464;SDS011;18089;47.428;15.006;2022-12-26T10:22:58;22.25;;;17.88;;
31464;SDS011;18089;47.428;15.006;2022-12-26T10:25:52;25.38;;;18.67;;
31464;SDS011;18089;47.428;15.006;2022-12-26T10:28:28;22.00;;;18.30;;
31464;SDS011;18089;47.428;15.006;2022-12-26T10:31:05;19.88;;;16.33;;
31464;SDS011;18089;47.428;15.006;2022-12-26T10:33:40;17.40;;;15.60;;
31464;SDS011;18089;47.428;15.006;2022-12-26T10:36:17;18.00;;;16.17;;
31464;SDS011;18089;47.428;15.006;2022-12-26T10:38:54;73.93;;;44.90;;
31464;SDS011;18089;47.428;15.006;2022-12-26T10:41:31;20.27;;;17.52;;
31464;SDS011;18089;47.428;15.006;2022-12-26T10:44:08;19.03;;;16.20;;
31464;SDS011;18089;47.428;15.006;2022-12-26T10:49:34;57.47;;;32.90;;
31464;SDS011;18089;47.428;15.006;2022-12-26T10:52:07;15.07;;;13.57;;
31464;SDS011;18089;47.428;15.006;2022-12-26T10:54:41;18.27;;;16.37;;
31464;SDS011;18089;47.428;15.006;2022-12-26T10:57:13;19.65;;;16.10;;
31464;SDS011;18089;47.428;15.006;2022-12-26T10:59:47;18.70;;;16.70;;
31464;SDS011;18089;47.428;15.006;2022-12-26T11:02:24;18.25;;;16.45;;
31464;SDS011;18089;47.428;15.006;2022-12-26T11:04:58;18.55;;;15.85;;
31464;SDS011;18089;47.428;15.006;2022-12-26T11:07:32;19.60;;;16.17;;
31464;SDS011;18089;47.428;15.006;2022-12-26T11:10:12;19.33;;;14.70;;
31464;SDS011;18089;47.428;15.006;2022-12-26T11:12:47;25.60;;;17.27;;
31464;SDS011;18089;47.428;15.006;2022-12-26T11:15:23;27.73;;;17.10;;
31464;SDS011;18089;47.428;15.006;2022-12-26T11:18:06;15.10;;;12.63;;
31464;SDS011;18089;47.428;15.006;2022-12-26T11:20:45;13.38;;;12.05;;
31464;SDS011;18089;47.428;15.006;2022-12-26T11:23:20;15.93;;;12.75;;
31464;SDS011;18089;47.428;15.006;2022-12-26T11:25:54;13.38;;;11.27;;
31464;SDS011;18089;47.428;15.006;2022-12-26T11:28:29;13.30;;;10.80;;
31464;SDS011;18089;47.428;15.006;2022-12-26T11:31:04;12.60;;;11.30;;
31464;SDS011;18089;47.428;15.006;2022-12-26T11:33:40;13.75;;;12.15;;
31464;SDS011;18089;47.428;15.006;2022-12-26T11:36:16;13.38;;;11.55;;
31464;SDS011;18089;47.428;15.006;2022-12-26T11:38:50;78.20;;;44.13;;
31464;SDS011;18089;47.428;15.006;2022-12-26T11:41:31;36.28;;;22.55;;
31464;SDS011;18089;47.428;15.006;2022-12-26T11:44:12;11.70;;;10.50;;
31464;SDS011;18089;47.428;15.006;2022-12-26T11:46:52;14.43;;;9.93;;
31464;SDS011;18089;47.428;15.006;2022-12-26T11:49:28;22.95;;;14.00;;
31464;SDS011;18089;47.428;15.006;2022-12-26T11:52:28;12.73;;;10.00;;
31464;SDS011;18089;47.428;15.006;2022-12-26T11:57:57;11.70;;;10.50;;
31464;SDS011;18089;47.428;15.006;2022-12-26T12:00:31;15.80;;;11.55;;
31464;SDS011;18089;47.428;15.006;2022-12-26T12:03:08;13.38;;;11.10;;
31464;SDS011;18089;47.428;15.006;2022-12-26T12:05:42;13.35;;;12.05;;
31464;SDS011;18089;47.428;15.006;2022-12-26T12:08:25;14.43;;;12.43;;
31464;SDS011;18089;47.428;15.006;2022-12-26T12:11:10;16.00;;;13.68;;
31464;SDS011;18089;47.428;15.006;2022-12-26T12:13:56;15.98;;;14.32;;
31464;SDS011;18089;47.428;15.006;2022-12-26T12:16:40;16.88;;;14.85;;
31464;SDS011;18089;47.428;15.006;2022-12-26T12:19:24;19.00;;;15.18;;
31464;SDS011;18089;47.428;15.006;2022-12-26T12:22:04;17.75;;;14.80;;
31464;SDS011;18089;47.428;15.006;2022-12-26T12:25:06;16.65;;;14.95;;
31464;SDS011;18089;47.428;15.006;2022-12-26T12:28:07;15.65;;;14.00;;
31464;SDS011;18089;47.428;15.006;2022-12-26T12:30:54;13.77;;;12.32;;
31464;SDS011;18089;47.428;15.006;2022-12-26T12:33:34;15.50;;;12.73;;
31464;SDS011;18089;47.428;15.006;2022-12-26T12:36:12;15.80;;;14.15;;
31464;SDS011;18089;47.428;15.006;2022-12-26T12:38:52;15.23;;;13.68;;
31464;SDS011;18089;47.428;15.006;2022-12-26T12:44:44;13.98;;;12.50;;
31464;SDS011;18089;47.428;15.006;2022-12-26T12:47:28;13.80;;;12.38;;
31464;SDS011;18089;47.428;15.006;2022-12-26T12:50:06;15.18;;;12.93;;
31464;SDS011;18089;47.428;15.006;2022-12-26T12:52:45;13.50;;;12.13;;
31464;SDS011;18089;47.428;15.006;2022-12-26T12:58:17;14.40;;;12.93;;
31464;SDS011;18089;47.428;15.006;2022-12-26T13:00:54;15.05;;;13.45;;
31464;SDS011;18089;47.428;15.006;2022-12-26T13:03:33;16.35;;;14.77;;
31464;SDS011;18089;47.428;15.006;2022-12-26T13:06:09;15.25;;;13.75;;
31464;SDS011;18089;47.428;15.006;2022-12-26T13:08:43;15.55;;;13.77;;
31464;SDS011;18089;47.428;15.006;2022-12-26T13:11:16;16.00;;;14.30;;
31464;SDS011;18089;47.428;15.006;2022-12-26T13:13:54;17.48;;;15.60;;
31464;SDS011;18089;47.428;15.006;2022-12-26T13:16:29;17.92;;;16.05;;
31464;SDS011;18089;47.428;15.006;2022-12-26T13:19:04;20.67;;;17.30;;
31464;SDS011;18089;47.428;15.006;2022-12-26T13:21:37;19.10;;;17.10;;
31464;SDS011;18089;47.428;15.006;2022-12-26T13:24:12;19.98;;;16.70;;
31464;SDS011;18089;47.428;15.006;2022-12-26T13:27:03;20.60;;;16.48;;
31464;SDS011;18089;47.428;15.006;2022-12-26T13:29:39;17.45;;;15.63;;
31464;SDS011;18089;47.428;15.006;2022-12-26T13:32:13;16.73;;;15.02;;
31464;SDS011;18089;47.428;15.006;2022-12-26T13:34:48;18.40;;;15.77;;
31464;SDS011;18089;47.428;15.006;2022-12-26T13:40:26;18.35;;;16.45;;
31464;SDS011;18089;47.428;15.006;2022-12-26T13:43:00;19.00;;;17.10;;
31464;SDS011;18089;47.428;15.006;2022-12-26T13:45:53;19.13;;;17.20;;
31464;SDS011;18089;47.428;15.006;2022-12-26T13:48:45;22.10;;;18.58;;
31464;SDS011;18089;47.428;15.006;2022-12-26T13:51:46;21.08;;;18.60;;
31464;SDS011;18089;47.428;15.006;2022-12-26T13:54:20;23.60;;;19.65;;
31464;SDS011;18089;47.428;15.006;2022-12-26T13:57:06;24.70;;;18.20;;
31464;SDS011;18089;47.428;15.006;2022-12-26T14:03:08;23.27;;;19.27;;
31464;SDS011;18089;47.428;15.006;2022-12-26T14:08:46;18.30;;;16.38;;
31464;SDS011;18089;47.428;15.006;2022-12-26T14:11:32;17.35;;;15.52;;
31464;SDS011;18089;47.428;15.006;2022-12-26T14:14:16;19.25;;;17.25;;
31464;SDS011;18089;47.428;15.006;2022-12-26T14:16:55;18.63;;;16.65;;
31464;SDS011;18089;47.428;15.006;2022-12-26T14:19:38;19.70;;;17.27;;
31464;SDS011;18089;47.428;15.006;2022-12-26T14:22:17;23.85;;;18.58;;
31464;SDS011;18089;47.428;15.006;2022-12-26T14:24:58;21.98;;;19.60;;
31464;SDS011;18089;47.428;15.006;2022-12-26T14:27:34;23.45;;;20.73;;
31464;SDS011;18089;47.428;15.006;2022-12-26T14:30:20;21.75;;;19.27;;
31464;SDS011;18089;47.428;15.006;2022-12-26T14:33:03;25.30;;;20.60;;
31464;SDS011;18089;47.428;15.006;2022-12-26T14:35:45;23.92;;;20.08;;
31464;SDS011;18089;47.428;15.006;2022-12-26T14:38:26;27.25;;;21.50;;
31464;SDS011;18089;47.428;15.006;2022-12-26T14:41:04;32.08;;;22.80;;
31464;SDS011;18089;47.428;15.006;2022-12-26T14:43:38;34.25;;;25.27;;
31464;SDS011;18089;47.428;15.006;2022-12-26T14:49:16;29.13;;;22.95;;
31464;SDS011;18089;47.428;15.006;2022-12-26T14:51:52;34.42;;;24.30;;
31464;SDS011;18089;47.428;15.006;2022-12-26T14:54:35;40.25;;;28.85;;
31464;SDS011;18089;47.428;15.006;2022-12-26T15:00:25;37.37;;;25.47;;
31464;SDS011;18089;47.428;15.006;2022-12-26T15:09:45;39.03;;;26.67;;
31464;SDS011;18089;47.428;15.006;2022-12-26T15:15:58;60.10;;;37.00;;
31464;SDS011;18089;47.428;15.006;2022-12-26T15:18:44;53.67;;;35.33;;
31464;SDS011;18089;47.428;15.006;2022-12-26T15:21:45;49.13;;;32.27;;
31464;SDS011;18089;47.428;15.006;2022-12-26T15:24:34;49.63;;;32.73;;
31464;SDS011;18089;47.428;15.006;2022-12-26T15:27:37;43.77;;;30.93;;
31464;SDS011;18089;47.428;15.006;2022-12-26T15:30:36;44.93;;;31.70;;
31464;SDS011;18089;47.428;15.006;2022-12-26T15:33:22;50.13;;;33.70;;
31464;SDS011;18089;47.428;15.006;2022-12-26T15:36:00;72.37;;;45.10;;
31464;SDS011;18089;47.428;15.006;2022-12-26T15:38:36;69.70;;;43.20;;
31464;SDS011;18089;47.428;15.006;2022-12-26T15:41:12;65.10;;;42.27;;
31464;SDS011;18089;47.428;15.006;2022-12-26T15:43:54;50.43;;;35.07;;
31464;SDS011;18089;47.428;15.006;2022-12-26T15:46:34;68.00;;;43.33;;
31464;SDS011;18089;47.428;15.006;2022-12-26T15:49:16;59.83;;;39.83;;
31464;SDS011;18089;47.428;15.006;2022-12-26T15:51:57;60.77;;;39.40;;